createdAt,value
2023-05-17T00:04:30.928Z,64.80
2023-05-17T00:09:34.949Z,64.80
2023-05-17T00:14:39.200Z,64.80
2023-05-17T00:19:43.329Z,64.90
2023-05-17T00:24:47.654Z,64.60
2023-05-17T00:29:52.613Z,64.80
2023-05-17T00:34:56.928Z,64.80
2023-05-17T00:40:03.432Z,64.70
2023-05-17T00:45:08.292Z,64.70
2023-05-17T00:50:12.621Z,64.30
2023-05-17T00:55:17.081Z,64.40
2023-05-17T01:00:21.406Z,64.80
2023-05-17T01:05:29.336Z,64.40
2023-05-17T01:11:01.608Z,64.50
2023-05-17T01:16:30.709Z,64.90
2023-05-17T01:21:51.532Z,64.50
2023-05-17T01:26:57.113Z,64.40
2023-05-17T01:32:03.693Z,64.00
2023-05-17T01:37:07.712Z,64.40
2023-05-17T01:42:23.253Z,64.40
2023-05-17T01:48:05.199Z,64.60
2023-05-17T01:53:17.129Z,64.70
2023-05-17T01:58:25.368Z,64.00
2023-05-17T02:03:30.010Z,64.30
2023-05-17T02:08:34.038Z,64.90
2023-05-17T02:13:38.172Z,64.20
2023-05-17T02:18:42.357Z,64.20
2023-05-17T02:23:46.833Z,64.10
2023-05-17T02:28:51.098Z,64.30
2023-05-17T02:33:55.322Z,64.20
2023-05-17T02:39:00.364Z,64.10
2023-05-17T02:44:04.716Z,64.00
2023-05-17T02:49:08.739Z,63.90
2023-05-17T02:54:12.883Z,63.70
2023-05-17T02:59:17.644Z,63.60
2023-05-17T03:04:22.044Z,64.10
2023-05-17T03:09:26.408Z,63.90
2023-05-17T03:14:30.661Z,64.10
2023-05-17T03:19:35.427Z,64.10
2023-05-17T03:24:40.968Z,64.00
2023-05-17T03:29:44.991Z,63.70
2023-05-17T03:34:50.973Z,63.80
2023-05-17T03:39:54.910Z,64.20
2023-05-17T03:44:59.662Z,64.20
2023-05-17T03:50:04.298Z,63.80
2023-05-17T03:55:09.877Z,63.80
2023-05-17T04:00:15.896Z,63.80
2023-05-17T04:05:20.630Z,63.70
2023-05-17T04:10:25.437Z,64.00
2023-05-17T04:15:29.795Z,63.70
2023-05-17T04:20:36.173Z,63.80
2023-05-17T04:25:40.405Z,63.80
2023-05-17T04:30:46.890Z,63.70
2023-05-17T04:35:51.747Z,64.00
2023-05-17T04:41:03.319Z,64.00
2023-05-17T04:46:09.136Z,63.80
2023-05-17T04:51:13.885Z,63.70
2023-05-17T04:56:19.135Z,63.70
2023-05-17T05:01:23.690Z,63.70
2023-05-17T05:06:28.416Z,63.60
2023-05-17T05:11:32.664Z,64.10
2023-05-17T05:16:37.709Z,63.70
2023-05-17T05:21:41.954Z,63.40
2023-05-17T05:26:46.998Z,63.60
2023-05-17T05:31:53.100Z,63.90
2023-05-17T05:36:58.347Z,63.50
2023-05-17T05:42:04.590Z,64.00
2023-05-17T05:47:08.772Z,63.30
2023-05-17T05:52:13.000Z,63.80
2023-05-17T05:57:18.152Z,63.80
2023-05-17T06:02:22.435Z,64.20
2023-05-17T06:07:26.733Z,64.40
2023-05-17T06:12:30.867Z,64.20
2023-05-17T06:17:35.130Z,64.10
2023-05-17T06:22:39.147Z,65.20
2023-05-17T06:27:44.194Z,64.20
2023-05-17T06:32:48.243Z,64.40
2023-05-17T06:37:52.265Z,64.30
2023-05-17T06:42:56.517Z,65.00
2023-05-17T06:48:00.538Z,64.80
2023-05-17T06:53:05.597Z,64.40
2023-05-17T06:58:09.926Z,64.40
2023-05-17T07:03:13.946Z,63.40
2023-05-17T07:08:18.304Z,62.90
2023-05-17T07:13:22.339Z,62.80
2023-05-17T07:18:26.810Z,62.50
2023-05-17T07:23:33.213Z,62.50
2023-05-17T07:28:37.910Z,62.50
2023-05-17T07:33:42.152Z,62.30
2023-05-17T07:38:46.366Z,62.00
2023-05-17T07:43:51.349Z,62.10
2023-05-17T07:48:58.118Z,62.30
2023-05-17T07:54:03.703Z,61.90
2023-05-17T07:59:08.345Z,61.60
2023-05-17T08:04:12.421Z,61.70
2023-05-17T08:09:17.130Z,61.70
2023-05-17T08:14:22.956Z,61.90
2023-05-17T08:19:27.269Z,61.50
2023-05-17T08:24:31.678Z,61.70
2023-05-17T08:29:36.767Z,61.30
2023-05-17T08:34:42.711Z,61.30
2023-05-17T08:39:47.086Z,61.20
2023-05-17T08:44:53.234Z,61.10
2023-05-17T08:50:06.367Z,61.40
2023-05-17T08:55:10.601Z,61.10
2023-05-17T09:00:19.629Z,61.00
2023-05-17T09:05:23.722Z,60.80
2023-05-17T09:10:28.160Z,60.80
2023-05-17T09:15:34.617Z,60.70
2023-05-17T09:20:40.023Z,61.10
2023-05-17T09:25:50.319Z,60.70
2023-05-17T09:30:54.399Z,60.60
2023-05-17T09:35:58.428Z,60.80
2023-05-17T09:41:03.494Z,60.90
2023-05-17T09:46:07.634Z,60.90
2023-05-17T09:51:12.058Z,61.00
2023-05-17T09:56:16.101Z,60.70
2023-05-17T10:01:22.650Z,60.70
2023-05-17T10:11:39.557Z,61.00
2023-05-17T10:16:44.099Z,61.00
2023-05-17T10:21:50.288Z,61.30
2023-05-17T10:26:54.819Z,61.60
2023-05-17T10:31:59.674Z,61.50
2023-05-17T10:37:04.753Z,61.70
2023-05-17T10:47:16.485Z,61.90
2023-05-17T10:52:24.056Z,62.40
2023-05-17T10:57:49.115Z,61.20
2023-05-17T11:03:14.920Z,61.40
2023-05-17T11:08:19.780Z,60.90
2023-05-17T11:13:27.792Z,61.20
2023-05-17T11:18:52.156Z,61.30
2023-05-17T11:24:00.322Z,61.10
2023-05-17T11:29:10.765Z,61.20
2023-05-17T11:34:14.791Z,60.90
2023-05-17T11:39:22.405Z,61.10
2023-05-17T11:44:30.282Z,60.70
2023-05-17T11:49:38.200Z,60.50
2023-05-17T11:54:43.477Z,60.50
2023-05-17T11:59:47.910Z,60.50
2023-05-17T12:04:52.193Z,60.80
2023-05-17T12:09:56.604Z,60.40
2023-05-17T12:15:00.929Z,60.20
2023-05-17T12:20:11.307Z,60.20
2023-05-17T12:25:25.889Z,60.80
2023-05-17T12:30:30.211Z,60.90
2023-05-17T12:35:34.853Z,60.70
2023-05-17T12:40:43.258Z,60.20
2023-05-17T12:45:48.290Z,59.90
2023-05-17T12:50:52.661Z,59.80
2023-05-17T12:55:59.678Z,59.40
2023-05-17T13:01:08.019Z,59.40
2023-05-17T13:06:12.358Z,59.30
2023-05-17T13:11:16.686Z,59.40
2023-05-17T13:16:30.707Z,59.40
2023-05-17T13:21:34.692Z,59.10
2023-05-17T13:26:38.943Z,60.20
2023-05-17T13:31:43.465Z,60.80
2023-05-17T13:36:48.415Z,62.50
2023-05-17T13:41:52.963Z,63.70
2023-05-17T13:46:58.175Z,63.70
2023-05-17T13:52:02.455Z,64.10
2023-05-17T13:57:08.223Z,65.60
2023-05-17T14:02:12.464Z,66.50
2023-05-17T14:07:16.822Z,66.90
2023-05-17T14:12:21.247Z,65.70
2023-05-17T14:17:25.422Z,65.00
2023-05-17T14:22:31.256Z,64.60
2023-05-17T14:27:35.298Z,64.00
2023-05-17T14:32:39.780Z,63.70
2023-05-17T14:37:44.687Z,63.30
2023-05-17T14:42:49.445Z,63.00
2023-05-17T14:47:53.742Z,63.00
2023-05-17T14:52:58.235Z,63.00
2023-05-17T14:58:03.086Z,62.10
2023-05-17T15:03:07.299Z,61.90
2023-05-17T15:08:12.684Z,61.30
2023-05-17T15:13:17.940Z,60.60
2023-05-17T15:18:22.796Z,61.40
2023-05-17T15:23:27.542Z,61.90
2023-05-17T15:28:31.675Z,61.40
2023-05-17T15:33:36.848Z,61.80
2023-05-17T15:38:41.074Z,61.80
2023-05-17T15:43:45.209Z,62.00
2023-05-17T15:48:49.391Z,61.90
2023-05-17T15:53:53.589Z,61.70
2023-05-17T15:58:57.813Z,62.10
2023-05-17T16:04:02.034Z,62.00
2023-05-17T16:09:06.314Z,61.70
2023-05-17T16:14:10.638Z,61.00
2023-05-17T16:19:14.753Z,61.10
2023-05-17T16:24:20.031Z,60.90
2023-05-17T16:29:23.958Z,60.00
2023-05-17T16:34:29.464Z,58.90
2023-05-17T16:39:33.904Z,58.80
2023-05-17T16:44:37.992Z,58.40
2023-05-17T16:49:42.939Z,58.50
2023-05-17T16:54:47.198Z,59.50
2023-05-17T16:59:51.744Z,59.00
2023-05-17T17:04:56.189Z,59.30
2023-05-17T17:10:00.323Z,59.20
2023-05-17T17:15:07.542Z,59.10
2023-05-17T17:20:13.280Z,59.10
2023-05-17T17:25:17.422Z,59.60
2023-05-17T17:30:21.577Z,62.40
2023-05-17T17:35:25.790Z,62.10
2023-05-17T17:40:30.310Z,62.00
2023-05-17T17:45:34.562Z,60.80
2023-05-17T17:50:38.708Z,60.80
2023-05-17T17:55:42.932Z,61.30
2023-05-17T18:00:49.851Z,61.30
2023-05-17T18:05:54.089Z,61.50
2023-05-17T18:10:58.624Z,61.20
2023-05-17T18:16:03.125Z,61.00
2023-05-17T18:21:09.052Z,60.20
2023-05-17T18:26:13.717Z,60.30
2023-05-17T18:31:19.891Z,61.00
2023-05-17T18:36:23.918Z,60.90
2023-05-17T18:41:29.475Z,60.30
2023-05-17T18:46:35.369Z,60.40
2023-05-17T18:51:40.201Z,60.30
2023-05-17T18:56:44.641Z,60.30
2023-05-17T19:01:53.569Z,60.30
2023-05-17T19:06:58.856Z,60.20
2023-05-17T19:12:04.533Z,60.00
2023-05-17T19:17:10.899Z,60.00
2023-05-17T19:22:16.065Z,60.00
2023-05-17T19:27:21.322Z,59.80
2023-05-17T19:32:27.857Z,60.10
2023-05-17T19:37:35.636Z,60.10
2023-05-17T19:42:40.361Z,60.00
2023-05-17T19:47:46.440Z,59.70
2023-05-17T19:52:53.532Z,59.40
2023-05-17T19:57:59.147Z,59.40
2023-05-17T20:03:03.542Z,59.60
2023-05-17T20:08:09.150Z,60.20
2023-05-17T20:13:13.686Z,60.50
2023-05-17T20:18:19.900Z,60.30
2023-05-17T20:23:25.440Z,60.10
2023-05-17T20:28:29.860Z,60.20
2023-05-17T20:33:34.513Z,61.60
2023-05-17T20:38:40.028Z,61.90
2023-05-17T20:43:50.077Z,61.80
2023-05-17T20:48:56.337Z,61.20
2023-05-17T20:54:01.901Z,61.00
2023-05-17T20:59:07.271Z,60.50
2023-05-17T21:04:12.219Z,60.90
2023-05-17T21:09:16.481Z,60.50
2023-05-17T21:14:20.591Z,60.60
2023-05-17T21:19:24.629Z,65.80
2023-05-17T21:24:28.769Z,63.70
2023-05-17T21:29:32.789Z,62.60
2023-05-17T21:34:38.972Z,62.10
2023-05-17T21:39:43.094Z,61.80
2023-05-17T21:44:47.346Z,67.10
2023-05-17T21:49:51.801Z,67.00
2023-05-17T21:55:04.053Z,66.60
2023-05-17T22:00:13.204Z,67.20
2023-05-17T22:05:17.723Z,66.50
2023-05-17T22:10:24.722Z,66.60
2023-05-17T22:15:28.944Z,66.40
2023-05-17T22:20:33.258Z,66.20
2023-05-17T22:25:38.022Z,66.00
2023-05-17T22:30:45.294Z,65.80
2023-05-17T22:35:53.776Z,65.60
2023-05-17T22:40:59.849Z,65.50
2023-05-17T22:46:04.482Z,65.40
2023-05-17T22:51:08.610Z,65.30
2023-05-17T22:56:13.392Z,65.40
2023-05-17T23:01:17.533Z,65.10
2023-05-17T23:06:22.566Z,65.10
2023-05-17T23:11:26.603Z,65.20
2023-05-17T23:16:30.844Z,64.60
2023-05-17T23:21:36.524Z,64.60
2023-05-17T23:26:41.465Z,64.60
2023-05-17T23:31:48.413Z,64.40
2023-05-17T23:36:52.615Z,64.60
2023-05-17T23:41:58.599Z,64.70
2023-05-17T23:47:04.861Z,64.40
2023-05-17T23:52:12.470Z,64.20
2023-05-17T23:57:16.610Z,64.20
